Terminal Aerodrome Forecast
Issued by NWS

Home | Current Version | Previous Version | Text Only | Print | Product List | Glossary On
Versions: 1 2 3 4 5 6 7 8 9 10 11 12 13
000
FTUS44 KHGX 182320
TAFLBX
TAF
KLBX 182320Z 1900/1924 17010KT P6SM SKC
     FM190300 19003KT P6SM SKC
     FM191400 20006KT P6SM SCT035
     FM192200 17010KT P6SM FEW250=

USA.gov is the U.S. government's official web portal to all federal, state and local government web resources and services.